sensor_id;sensor_type;location;lat;lon;timestamp;pressure;altitude;pressure_sealevel;temperature;humidity
31121;BME280;17770;45.966;13.632;2023-02-14T00:01:40;102450.34;;;14.36;59.06
31121;BME280;17770;45.966;13.632;2023-02-14T00:04:06;102459.84;;;14.39;59.33
31121;BME280;17770;45.966;13.632;2023-02-14T00:06:33;102451.19;;;14.38;59.38
31121;BME280;17770;45.966;13.632;2023-02-14T00:09:00;102453.81;;;14.37;59.17
31121;BME280;17770;45.966;13.632;2023-02-14T00:11:27;102433.94;;;14.36;59.21
31121;BME280;17770;45.966;13.632;2023-02-14T00:13:53;102433.03;;;14.37;59.31
31121;BME280;17770;45.966;13.632;2023-02-14T00:16:37;102433.06;;;14.35;59.26
31121;BME280;17770;45.966;13.632;2023-02-14T00:19:03;102429.59;;;14.35;59.27
31121;BME280;17770;45.966;13.632;2023-02-14T00:21:35;102433.91;;;14.34;59.29
31121;BME280;17770;45.966;13.632;2023-02-14T00:24:02;102432.19;;;14.35;59.05
31121;BME280;17770;45.966;13.632;2023-02-14T00:26:28;102433.06;;;14.35;58.95
31121;BME280;17770;45.966;13.632;2023-02-14T00:28:54;102427.03;;;14.33;59.05
31121;BME280;17770;45.966;13.632;2023-02-14T00:31:22;102423.53;;;14.34;59.12
31121;BME280;17770;45.966;13.632;2023-02-14T00:33:48;102427.00;;;14.35;59.02
31121;BME280;17770;45.966;13.632;2023-02-14T00:36:14;102422.69;;;14.34;59.26
31121;BME280;17770;45.966;13.632;2023-02-14T00:38:41;102426.16;;;14.31;59.38
31121;BME280;17770;45.966;13.632;2023-02-14T00:41:07;102426.16;;;14.31;59.45
31121;BME280;17770;45.966;13.632;2023-02-14T00:43:33;102425.34;;;14.31;59.22
31121;BME280;17770;45.966;13.632;2023-02-14T00:45:59;102433.97;;;14.31;59.18
31121;BME280;17770;45.966;13.632;2023-02-14T00:48:24;102424.47;;;14.30;58.93
31121;BME280;17770;45.966;13.632;2023-02-14T00:50:50;102422.75;;;14.31;58.83
31121;BME280;17770;45.966;13.632;2023-02-14T00:53:16;102444.34;;;14.31;59.08
31121;BME280;17770;45.966;13.632;2023-02-14T00:55:43;102448.69;;;14.31;59.28
31121;BME280;17770;45.966;13.632;2023-02-14T00:58:09;102446.97;;;14.30;59.04
31121;BME280;17770;45.966;13.632;2023-02-14T01:00:35;102441.75;;;14.30;58.98
31121;BME280;17770;45.966;13.632;2023-02-14T01:03:01;102453.03;;;14.29;58.89
31121;BME280;17770;45.966;13.632;2023-02-14T01:05:28;102447.84;;;14.29;58.92
31121;BME280;17770;45.966;13.632;2023-02-14T01:07:54;102453.06;;;14.27;59.20
31121;BME280;17770;45.966;13.632;2023-02-14T01:10:20;102449.59;;;14.27;59.01
31121;BME280;17770;45.966;13.632;2023-02-14T01:12:46;102448.69;;;14.28;59.08
31121;BME280;17770;45.966;13.632;2023-02-14T01:15:12;102446.13;;;14.26;58.90
31121;BME280;17770;45.966;13.632;2023-02-14T01:17:38;102453.06;;;14.26;59.36
31121;BME280;17770;45.966;13.632;2023-02-14T01:20:04;102450.47;;;14.26;58.92
31121;BME280;17770;45.966;13.632;2023-02-14T01:22:33;102451.31;;;14.26;59.12
31121;BME280;17770;45.966;13.632;2023-02-14T01:24:59;102458.25;;;14.26;59.35
31121;BME280;17770;45.966;13.632;2023-02-14T01:27:25;102451.34;;;14.25;59.28
31121;BME280;17770;45.966;13.632;2023-02-14T01:29:51;102447.00;;;14.25;59.30
31121;BME280;17770;45.966;13.632;2023-02-14T01:32:17;102435.75;;;14.25;58.98
31121;BME280;17770;45.966;13.632;2023-02-14T01:34:43;102432.31;;;14.24;58.86
31121;BME280;17770;45.966;13.632;2023-02-14T01:37:09;102436.63;;;14.25;58.93
31121;BME280;17770;45.966;13.632;2023-02-14T01:39:35;102435.75;;;14.23;58.99
31121;BME280;17770;45.966;13.632;2023-02-14T01:42:01;102442.69;;;14.24;59.00
31121;BME280;17770;45.966;13.632;2023-02-14T01:46:52;102440.94;;;14.23;58.87
31121;BME280;17770;45.966;13.632;2023-02-14T01:49:21;102436.63;;;14.22;58.91
31121;BME280;17770;45.966;13.632;2023-02-14T01:51:54;102434.03;;;14.22;58.83
31121;BME280;17770;45.966;13.632;2023-02-14T01:54:22;102423.66;;;14.22;58.66
31121;BME280;17770;45.966;13.632;2023-02-14T01:56:49;102428.00;;;14.22;58.76
31121;BME280;17770;45.966;13.632;2023-02-14T01:59:19;102434.06;;;14.21;58.93
31121;BME280;17770;45.966;13.632;2023-02-14T02:01:47;102434.06;;;14.21;59.24
31121;BME280;17770;45.966;13.632;2023-02-14T02:04:15;102428.00;;;14.20;58.59
31121;BME280;17770;45.966;13.632;2023-02-14T02:06:52;102408.16;;;14.18;58.85
31121;BME280;17770;45.966;13.632;2023-02-14T02:09:20;102408.13;;;14.19;58.77
31121;BME280;17770;45.966;13.632;2023-02-14T02:11:48;102409.88;;;14.19;58.94
31121;BME280;17770;45.966;13.632;2023-02-14T02:14:16;102402.97;;;14.16;58.71
31121;BME280;17770;45.966;13.632;2023-02-14T02:16:49;102406.44;;;14.15;58.96
31121;BME280;17770;45.966;13.632;2023-02-14T02:22:45;102402.97;;;14.16;58.99
31121;BME280;17770;45.966;13.632;2023-02-14T02:25:12;102411.66;;;14.14;59.30
31121;BME280;17770;45.966;13.632;2023-02-14T02:46:08;102392.63;;;14.12;58.65
31121;BME280;17770;45.966;13.632;2023-02-14T02:51:29;102393.53;;;14.11;58.55
31121;BME280;17770;45.966;13.632;2023-02-14T02:54:19;102387.47;;;14.10;58.65
31121;BME280;17770;45.966;13.632;2023-02-14T02:56:49;102375.38;;;14.09;58.49
31121;BME280;17770;45.966;13.632;2023-02-14T02:59:20;102377.97;;;14.09;58.42
31121;BME280;17770;45.966;13.632;2023-02-14T03:04:43;102378.00;;;14.08;58.17
31121;BME280;17770;45.966;13.632;2023-02-14T03:07:33;102374.53;;;14.07;58.79
31121;BME280;17770;45.966;13.632;2023-02-14T03:10:00;102378.03;;;14.06;58.60
31121;BME280;17770;45.966;13.632;2023-02-14T03:12:36;102376.25;;;14.07;58.64
31121;BME280;17770;45.966;13.632;2023-02-14T03:15:25;102372.84;;;14.06;58.45
31121;BME280;17770;45.966;13.632;2023-02-14T03:18:02;102376.28;;;14.05;58.72
31121;BME280;17770;45.966;13.632;2023-02-14T03:25:37;102372.00;;;14.03;58.53
31121;BME280;17770;45.966;13.632;2023-02-14T03:28:16;102366.81;;;14.03;58.61
31121;BME280;17770;45.966;13.632;2023-02-14T03:33:29;102367.66;;;14.03;58.36
31121;BME280;17770;45.966;13.632;2023-02-14T03:35:59;102370.25;;;14.03;58.38
31121;BME280;17770;45.966;13.632;2023-02-14T03:38:29;102374.59;;;14.03;58.50
31121;BME280;17770;45.966;13.632;2023-02-14T03:40:58;102364.25;;;14.01;58.52
31121;BME280;17770;45.966;13.632;2023-02-14T03:43:30;102365.97;;;14.01;58.52
31121;BME280;17770;45.966;13.632;2023-02-14T03:48:38;102366.81;;;14.00;58.57
31121;BME280;17770;45.966;13.632;2023-02-14T03:51:05;102362.53;;;13.99;58.57
31121;BME280;17770;45.966;13.632;2023-02-14T03:53:34;102365.13;;;13.99;58.47
31121;BME280;17770;45.966;13.632;2023-02-14T03:56:02;102359.94;;;13.99;58.42
31121;BME280;17770;45.966;13.632;2023-02-14T03:58:36;102356.47;;;13.98;58.68
31121;BME280;17770;45.966;13.632;2023-02-14T04:01:05;102362.53;;;13.97;58.29
31121;BME280;17770;45.966;13.632;2023-02-14T04:03:33;102356.50;;;13.97;58.51
31121;BME280;17770;45.966;13.632;2023-02-14T04:06:00;102359.97;;;13.96;58.52
31121;BME280;17770;45.966;13.632;2023-02-14T04:08:27;102357.41;;;13.94;58.68
31121;BME280;17770;45.966;13.632;2023-02-14T04:10:53;102362.59;;;13.94;58.48
31121;BME280;17770;45.966;13.632;2023-02-14T04:13:21;102353.91;;;13.95;58.64
31121;BME280;17770;45.966;13.632;2023-02-14T04:15:46;102356.53;;;13.94;58.30
31121;BME280;17770;45.966;13.632;2023-02-14T04:18:12;102361.72;;;13.94;58.30
31121;BME280;17770;45.966;13.632;2023-02-14T04:20:56;102359.13;;;13.94;58.51
31121;BME280;17770;45.966;13.632;2023-02-14T04:23:22;102353.94;;;13.92;58.27
31121;BME280;17770;45.966;13.632;2023-02-14T04:25:48;102356.53;;;13.94;58.48
31121;BME280;17770;45.966;13.632;2023-02-14T04:28:14;102353.94;;;13.94;58.35
31121;BME280;17770;45.966;13.632;2023-02-14T04:30:40;102347.91;;;13.92;58.18
31121;BME280;17770;45.966;13.632;2023-02-14T04:33:06;102350.50;;;13.92;58.38
31121;BME280;17770;45.966;13.632;2023-02-14T04:35:33;102342.72;;;13.92;58.63
31121;BME280;17770;45.966;13.632;2023-02-14T04:37:59;102346.19;;;13.91;58.32
31121;BME280;17770;45.966;13.632;2023-02-14T04:40:26;102349.69;;;13.90;58.09
31121;BME280;17770;45.966;13.632;2023-02-14T04:42:52;102347.09;;;13.90;58.12
31121;BME280;17770;45.966;13.632;2023-02-14T04:45:17;102343.63;;;13.89;58.49
31121;BME280;17770;45.966;13.632;2023-02-14T04:47:43;102344.50;;;13.90;58.48
31121;BME280;17770;45.966;13.632;2023-02-14T04:50:09;102343.63;;;13.89;58.19
31121;BME280;17770;45.966;13.632;2023-02-14T04:52:35;102351.41;;;13.88;58.69
31121;BME280;17770;45.966;13.632;2023-02-14T04:55:02;102348.81;;;13.88;58.58
31121;BME280;17770;45.966;13.632;2023-02-14T04:57:29;102345.38;;;13.86;58.47
31121;BME280;17770;45.966;13.632;2023-02-14T04:59:54;102341.88;;;13.88;58.04
31121;BME280;17770;45.966;13.632;2023-02-14T05:02:20;102340.19;;;13.87;58.42
31121;BME280;17770;45.966;13.632;2023-02-14T05:04:46;102339.31;;;13.87;57.86
31121;BME280;17770;45.966;13.632;2023-02-14T05:07:12;102332.41;;;13.86;58.21
31121;BME280;17770;45.966;13.632;2023-02-14T05:09:38;102329.81;;;13.87;58.28
31121;BME280;17770;45.966;13.632;2023-02-14T05:12:04;102325.50;;;13.86;58.34
31121;BME280;17770;45.966;13.632;2023-02-14T05:14:29;102321.19;;;13.85;58.50
31121;BME280;17770;45.966;13.632;2023-02-14T05:16:55;102320.31;;;13.86;58.00
31121;BME280;17770;45.966;13.632;2023-02-14T05:19:21;102326.34;;;13.87;58.36
31121;BME280;17770;45.966;13.632;2023-02-14T05:21:47;102325.50;;;13.88;58.10
31121;BME280;17770;45.966;13.632;2023-02-14T05:24:14;102324.63;;;13.86;57.93
31121;BME280;17770;45.966;13.632;2023-02-14T05:26:40;102325.50;;;13.83;58.18
31121;BME280;17770;45.966;13.632;2023-02-14T05:29:06;102333.28;;;13.83;58.34
31121;BME280;17770;45.966;13.632;2023-02-14T05:31:31;102332.47;;;13.83;58.48
31121;BME280;17770;45.966;13.632;2023-02-14T05:33:57;102329.91;;;13.80;58.13
31121;BME280;17770;45.966;13.632;2023-02-14T05:36:23;102332.50;;;13.80;58.64
31121;BME280;17770;45.966;13.632;2023-02-14T05:38:49;102337.66;;;13.81;58.18
31121;BME280;17770;45.966;13.632;2023-02-14T05:41:15;102334.19;;;13.81;58.92
31121;BME280;17770;45.966;13.632;2023-02-14T05:43:41;102338.53;;;13.80;58.31
31121;BME280;17770;45.966;13.632;2023-02-14T05:46:06;102347.19;;;13.79;58.46
31121;BME280;17770;45.966;13.632;2023-02-14T05:48:32;102337.69;;;13.80;58.26
31121;BME280;17770;45.966;13.632;2023-02-14T05:51:02;102345.47;;;13.78;58.52
31121;BME280;17770;45.966;13.632;2023-02-14T05:53:28;102335.09;;;13.78;58.50
31121;BME280;17770;45.966;13.632;2023-02-14T05:55:54;102344.63;;;13.78;58.22
31121;BME280;17770;45.966;13.632;2023-02-14T05:58:20;102342.03;;;13.78;58.47
31121;BME280;17770;45.966;13.632;2023-02-14T06:00:46;102344.63;;;13.76;58.24
31121;BME280;17770;45.966;13.632;2023-02-14T06:03:12;102346.38;;;13.74;58.89
31121;BME280;17770;45.966;13.632;2023-02-14T06:05:38;102349.84;;;13.75;58.38
31121;BME280;17770;45.966;13.632;2023-02-14T06:08:04;102342.91;;;13.74;58.85
31121;BME280;17770;45.966;13.632;2023-02-14T06:10:31;102344.66;;;13.73;58.83
31121;BME280;17770;45.966;13.632;2023-02-14T06:12:56;102341.19;;;13.74;58.69
31121;BME280;17770;45.966;13.632;2023-02-14T06:15:22;102343.78;;;13.74;58.35
31121;BME280;17770;45.966;13.632;2023-02-14T06:17:52;102342.94;;;13.72;58.78
31121;BME280;17770;45.966;13.632;2023-02-14T06:20:18;102342.06;;;13.72;58.28
31121;BME280;17770;45.966;13.632;2023-02-14T06:22:44;102340.34;;;13.71;58.18
31121;BME280;17770;45.966;13.632;2023-02-14T06:25:10;102336.91;;;13.70;58.38
31121;BME280;17770;45.966;13.632;2023-02-14T06:27:36;102342.09;;;13.70;58.60
31121;BME280;17770;45.966;13.632;2023-02-14T06:30:02;102334.31;;;13.69;58.67
31121;BME280;17770;45.966;13.632;2023-02-14T06:32:28;102342.97;;;13.69;58.63
31121;BME280;17770;45.966;13.632;2023-02-14T06:34:54;102346.44;;;13.70;58.48
31121;BME280;17770;45.966;13.632;2023-02-14T06:37:20;102341.25;;;13.67;58.60
31121;BME280;17770;45.966;13.632;2023-02-14T06:39:46;102348.19;;;13.68;58.65
31121;BME280;17770;45.966;13.632;2023-02-14T06:42:12;102344.72;;;13.67;58.39
31121;BME280;17770;45.966;13.632;2023-02-14T06:44:38;102355.97;;;13.66;59.04
31121;BME280;17770;45.966;13.632;2023-02-14T06:47:04;102349.03;;;13.67;58.72
31121;BME280;17770;45.966;13.632;2023-02-14T06:49:30;102343.84;;;13.67;58.35
31121;BME280;17770;45.966;13.632;2023-02-14T06:51:56;102350.78;;;13.66;58.91
31121;BME280;17770;45.966;13.632;2023-02-14T06:54:22;102354.22;;;13.65;58.18
31121;BME280;17770;45.966;13.632;2023-02-14T06:56:47;102349.03;;;13.65;58.82
31121;BME280;17770;45.966;13.632;2023-02-14T06:59:13;102352.53;;;13.64;58.95
31121;BME280;17770;45.966;13.632;2023-02-14T07:01:39;102350.81;;;13.63;58.57
31121;BME280;17770;45.966;13.632;2023-02-14T07:04:05;102352.53;;;13.64;58.56
31121;BME280;17770;45.966;13.632;2023-02-14T07:06:31;102353.41;;;13.63;58.65
31121;BME280;17770;45.966;13.632;2023-02-14T07:08:57;102357.72;;;13.63;58.65
31121;BME280;17770;45.966;13.632;2023-02-14T07:11:22;102349.09;;;13.62;58.34
31121;BME280;17770;45.966;13.632;2023-02-14T07:13:48;102356.03;;;13.62;58.28
31121;BME280;17770;45.966;13.632;2023-02-14T07:16:14;102352.56;;;13.61;58.66
31121;BME280;17770;45.966;13.632;2023-02-14T07:18:40;102358.63;;;13.62;58.29
31121;BME280;17770;45.966;13.632;2023-02-14T07:21:06;102354.28;;;13.62;58.62
31121;BME280;17770;45.966;13.632;2023-02-14T07:23:32;102354.28;;;13.62;57.91
31121;BME280;17770;45.966;13.632;2023-02-14T07:25:57;102359.47;;;13.61;58.54
31121;BME280;17770;45.966;13.632;2023-02-14T07:28:23;102351.72;;;13.59;58.59
31121;BME280;17770;45.966;13.632;2023-02-14T07:30:49;102359.47;;;13.61;58.20
31121;BME280;17770;45.966;13.632;2023-02-14T07:33:15;102355.19;;;13.60;58.58
31121;BME280;17770;45.966;13.632;2023-02-14T07:35:41;102360.34;;;13.60;58.08
31121;BME280;17770;45.966;13.632;2023-02-14T07:38:07;102356.91;;;13.59;58.66
31121;BME280;17770;45.966;13.632;2023-02-14T07:40:32;102351.72;;;13.58;58.29
31121;BME280;17770;45.966;13.632;2023-02-14T07:42:58;102357.78;;;13.58;58.64
31121;BME280;17770;45.966;13.632;2023-02-14T07:45:25;102367.28;;;13.58;58.61
31121;BME280;17770;45.966;13.632;2023-02-14T07:47:52;102366.41;;;13.59;58.29
31121;BME280;17770;45.966;13.632;2023-02-14T07:50:18;102366.41;;;13.57;58.56
31121;BME280;17770;45.966;13.632;2023-02-14T07:52:44;102360.38;;;13.55;58.68
31121;BME280;17770;45.966;13.632;2023-02-14T07:55:10;102355.19;;;13.55;59.01
31121;BME280;17770;45.966;13.632;2023-02-14T07:57:36;102353.47;;;13.56;58.55
31121;BME280;17770;45.966;13.632;2023-02-14T08:00:03;102349.19;;;13.53;58.71
31121;BME280;17770;45.966;13.632;2023-02-14T08:02:37;102353.47;;;13.56;58.37
31121;BME280;17770;45.966;13.632;2023-02-14T08:05:03;102336.19;;;13.56;58.17
31121;BME280;17770;45.966;13.632;2023-02-14T08:07:29;102343.09;;;13.56;58.19
31121;BME280;17770;45.966;13.632;2023-02-14T08:09:55;102335.31;;;13.56;58.50
31121;BME280;17770;45.966;13.632;2023-02-14T08:12:21;102341.38;;;13.56;58.10
31121;BME280;17770;45.966;13.632;2023-02-14T08:15:05;102331.88;;;13.55;58.72
31121;BME280;17770;45.966;13.632;2023-02-14T08:17:49;102333.59;;;13.56;58.09
31121;BME280;17770;45.966;13.632;2023-02-14T08:20:15;102333.59;;;13.56;58.64
31121;BME280;17770;45.966;13.632;2023-02-14T08:22:41;102335.31;;;13.57;58.63
31121;BME280;17770;45.966;13.632;2023-02-14T08:25:07;102333.59;;;13.56;58.21
31121;BME280;17770;45.966;13.632;2023-02-14T08:27:33;102336.19;;;13.56;58.27
31121;BME280;17770;45.966;13.632;2023-02-14T08:29:58;102337.06;;;13.57;57.96
31121;BME280;17770;45.966;13.632;2023-02-14T08:32:24;102333.59;;;13.56;58.44
31121;BME280;17770;45.966;13.632;2023-02-14T08:34:50;102338.72;;;13.61;58.32
31121;BME280;17770;45.966;13.632;2023-02-14T08:37:16;102331.81;;;13.61;57.35
31121;BME280;17770;45.966;13.632;2023-02-14T08:39:42;102330.91;;;13.64;58.32
31121;BME280;17770;45.966;13.632;2023-02-14T08:42:07;102330.06;;;13.65;58.55
31121;BME280;17770;45.966;13.632;2023-02-14T08:44:33;102330.09;;;13.63;58.51
31121;BME280;17770;45.966;13.632;2023-02-14T08:46:59;102328.31;;;13.64;58.60
31121;BME280;17770;45.966;13.632;2023-02-14T08:49:25;102327.50;;;13.63;57.91
31121;BME280;17770;45.966;13.632;2023-02-14T08:51:51;102322.31;;;13.62;58.48
31121;BME280;17770;45.966;13.632;2023-02-14T08:54:17;102326.63;;;13.61;57.70
31121;BME280;17770;45.966;13.632;2023-02-14T08:56:42;102330.97;;;13.61;58.25
31121;BME280;17770;45.966;13.632;2023-02-14T08:59:08;102324.91;;;13.62;58.01
31121;BME280;17770;45.966;13.632;2023-02-14T09:01:34;102322.31;;;13.62;57.68
31121;BME280;17770;45.966;13.632;2023-02-14T09:04:01;102314.53;;;13.60;57.75
31121;BME280;17770;45.966;13.632;2023-02-14T09:06:28;102317.97;;;13.62;57.97
31121;BME280;17770;45.966;13.632;2023-02-14T09:08:54;102319.72;;;13.60;58.19
31121;BME280;17770;45.966;13.632;2023-02-14T09:11:21;102312.81;;;13.61;57.70
31121;BME280;17770;45.966;13.632;2023-02-14T09:13:47;102313.69;;;13.60;58.02
31121;BME280;17770;45.966;13.632;2023-02-14T09:16:14;102305.91;;;13.60;58.14
31121;BME280;17770;45.966;13.632;2023-02-14T09:18:44;102319.75;;;13.59;57.72
31121;BME280;17770;45.966;13.632;2023-02-14T09:21:11;102318.00;;;13.59;57.98
31121;BME280;17770;45.966;13.632;2023-02-14T09:23:37;102311.09;;;13.60;58.13
31121;BME280;17770;45.966;13.632;2023-02-14T09:26:04;102315.41;;;13.61;57.67
31121;BME280;17770;45.966;13.632;2023-02-14T09:28:30;102315.41;;;13.61;57.77
31121;BME280;17770;45.966;13.632;2023-02-14T09:30:56;102305.06;;;13.59;57.55
31121;BME280;17770;45.966;13.632;2023-02-14T09:33:24;102310.25;;;13.58;58.07
31121;BME280;17770;45.966;13.632;2023-02-14T09:35:51;102310.25;;;13.58;57.92
31121;BME280;17770;45.966;13.632;2023-02-14T09:38:35;102309.38;;;13.57;58.06
31121;BME280;17770;45.966;13.632;2023-02-14T09:41:05;102302.47;;;13.59;58.02
31121;BME280;17770;45.966;13.632;2023-02-14T09:43:38;102303.31;;;13.60;58.21
31121;BME280;17770;45.966;13.632;2023-02-14T09:46:10;102316.31;;;13.57;58.18
31121;BME280;17770;45.966;13.632;2023-02-14T09:48:39;102308.50;;;13.60;57.50
31121;BME280;17770;45.966;13.632;2023-02-14T09:51:15;102304.16;;;13.60;57.53
31121;BME280;17770;45.966;13.632;2023-02-14T09:53:44;102303.31;;;13.60;57.59
31121;BME280;17770;45.966;13.632;2023-02-14T09:56:56;102298.97;;;13.60;58.19
31121;BME280;17770;45.966;13.632;2023-02-14T10:01:37;102301.56;;;13.60;57.91
31121;BME280;17770;45.966;13.632;2023-02-14T10:15:01;102286.03;;;13.62;58.24
31121;BME280;17770;45.966;13.632;2023-02-14T10:17:38;102276.53;;;13.61;57.90
31121;BME280;17770;45.966;13.632;2023-02-14T10:20:13;102275.66;;;13.60;58.03
31121;BME280;17770;45.966;13.632;2023-02-14T10:22:42;102278.25;;;13.60;58.11
31121;BME280;17770;45.966;13.632;2023-02-14T10:25:21;102269.63;;;13.60;58.71
31121;BME280;17770;45.966;13.632;2023-02-14T10:27:49;102261.84;;;13.60;58.18
31121;BME280;17770;45.966;13.632;2023-02-14T10:30:16;102256.69;;;13.58;57.60
31121;BME280;17770;45.966;13.632;2023-02-14T10:42:59;102244.63;;;13.54;58.26
31121;BME280;17770;45.966;13.632;2023-02-14T10:45:38;102246.34;;;13.54;58.40
31121;BME280;17770;45.966;13.632;2023-02-14T10:55:48;102225.63;;;13.54;58.50
31121;BME280;17770;45.966;13.632;2023-02-14T10:58:17;102216.13;;;13.54;59.28
31121;BME280;17770;45.966;13.632;2023-02-14T11:01:04;102217.00;;;13.53;59.27
31121;BME280;17770;45.966;13.632;2023-02-14T11:03:32;102216.97;;;13.55;59.11
31121;BME280;17770;45.966;13.632;2023-02-14T11:05:59;102212.63;;;13.55;59.08
31121;BME280;17770;45.966;13.632;2023-02-14T11:11:40;102199.66;;;13.55;59.12
31121;BME280;17770;45.966;13.632;2023-02-14T11:13:40;102192.75;;;13.56;58.51
31121;BME280;17770;45.966;13.632;2023-02-14T11:16:08;102191.03;;;13.56;59.37
31121;BME280;17770;45.966;13.632;2023-02-14T11:18:34;102185.00;;;13.56;59.05
31121;BME280;17770;45.966;13.632;2023-02-14T11:23:33;102181.53;;;13.57;59.75
31121;BME280;17770;45.966;13.632;2023-02-14T11:26:00;102178.06;;;13.56;59.06
31121;BME280;17770;45.966;13.632;2023-02-14T11:28:27;102178.94;;;13.57;59.71
31121;BME280;17770;45.966;13.632;2023-02-14T11:30:53;102176.34;;;13.58;59.77
31121;BME280;17770;45.966;13.632;2023-02-14T11:35:54;102170.25;;;13.59;59.29
31121;BME280;17770;45.966;13.632;2023-02-14T11:38:42;102160.75;;;13.60;60.02
31121;BME280;17770;45.966;13.632;2023-02-14T11:41:11;102154.69;;;13.61;59.67
31121;BME280;17770;45.966;13.632;2023-02-14T11:43:39;102148.63;;;13.60;59.86
31121;BME280;17770;45.966;13.632;2023-02-14T11:49:40;102145.16;;;13.63;60.11
31121;BME280;17770;45.966;13.632;2023-02-14T11:54:01;102138.25;;;13.63;60.00
31121;BME280;17770;45.966;13.632;2023-02-14T11:56:42;102133.03;;;13.65;60.23
31121;BME280;17770;45.966;13.632;2023-02-14T11:59:09;102128.69;;;13.65;59.75
31121;BME280;17770;45.966;13.632;2023-02-14T12:01:37;102127.84;;;13.66;60.09
31121;BME280;17770;45.966;13.632;2023-02-14T12:04:16;102123.47;;;13.67;60.17
31121;BME280;17770;45.966;13.632;2023-02-14T12:06:44;102124.34;;;13.67;59.64
31121;BME280;17770;45.966;13.632;2023-02-14T12:09:11;102123.47;;;13.70;60.06
31121;BME280;17770;45.966;13.632;2023-02-14T12:11:37;102119.13;;;13.70;60.18
31121;BME280;17770;45.966;13.632;2023-02-14T12:14:03;102109.63;;;13.71;60.55
31121;BME280;17770;45.966;13.632;2023-02-14T12:16:31;102113.06;;;13.71;60.13
31121;BME280;17770;45.966;13.632;2023-02-14T12:19:02;102109.59;;;13.72;60.30
31121;BME280;17770;45.966;13.632;2023-02-14T12:21:37;102111.31;;;13.73;60.84
31121;BME280;17770;45.966;13.632;2023-02-14T12:31:58;102095.69;;;13.78;60.37
31121;BME280;17770;45.966;13.632;2023-02-14T12:34:25;102089.63;;;13.77;60.90
31121;BME280;17770;45.966;13.632;2023-02-14T12:39:30;102080.09;;;13.81;61.09
31121;BME280;17770;45.966;13.632;2023-02-14T12:44:57;102074.88;;;13.82;60.88
31121;BME280;17770;45.966;13.632;2023-02-14T12:47:33;102075.72;;;13.84;61.27
31121;BME280;17770;45.966;13.632;2023-02-14T13:06:06;102050.44;;;13.95;62.00
31121;BME280;17770;45.966;13.632;2023-02-14T13:13:57;102039.13;;;14.01;62.69
31121;BME280;17770;45.966;13.632;2023-02-14T13:16:32;102033.03;;;14.03;63.41
31121;BME280;17770;45.966;13.632;2023-02-14T13:21:32;102029.56;;;14.04;63.25
31121;BME280;17770;45.966;13.632;2023-02-14T13:24:22;102033.00;;;14.06;64.23
31121;BME280;17770;45.966;13.632;2023-02-14T13:26:47;102027.75;;;14.09;62.98
31121;BME280;17770;45.966;13.632;2023-02-14T13:29:17;102029.44;;;14.10;64.62
31121;BME280;17770;45.966;13.632;2023-02-14T13:31:45;102029.41;;;14.13;64.62
31121;BME280;17770;45.966;13.632;2023-02-14T13:36:56;102025.88;;;14.17;65.93
31121;BME280;17770;45.966;13.632;2023-02-14T13:41:52;102027.50;;;14.21;66.32
31121;BME280;17770;45.966;13.632;2023-02-14T13:47:02;102022.31;;;14.24;65.54
31121;BME280;17770;45.966;13.632;2023-02-14T13:49:29;102010.16;;;14.26;66.28
31121;BME280;17770;45.966;13.632;2023-02-14T13:51:57;102012.72;;;14.28;66.25
31121;BME280;17770;45.966;13.632;2023-02-14T13:56:56;102003.97;;;14.33;66.42
31121;BME280;17770;45.966;13.632;2023-02-14T13:59:32;101995.31;;;14.34;65.68
31121;BME280;17770;45.966;13.632;2023-02-14T14:04:43;101986.59;;;14.38;65.19
31121;BME280;17770;45.966;13.632;2023-02-14T14:15:12;101988.19;;;14.46;64.93
31121;BME280;17770;45.966;13.632;2023-02-14T14:20:28;101979.44;;;14.50;63.70
31121;BME280;17770;45.966;13.632;2023-02-14T14:22:50;101985.44;;;14.53;61.69
31121;BME280;17770;45.966;13.632;2023-02-14T14:28:03;101978.47;;;14.55;64.13
31121;BME280;17770;45.966;13.632;2023-02-14T14:30:34;101979.28;;;14.59;61.65
31121;BME280;17770;45.966;13.632;2023-02-14T14:33:22;101976.66;;;14.60;61.56
31121;BME280;17770;45.966;13.632;2023-02-14T14:35:52;101979.22;;;14.62;61.02
31121;BME280;17770;45.966;13.632;2023-02-14T14:38:18;101976.56;;;14.63;63.09
31121;BME280;17770;45.966;13.632;2023-02-14T14:40:44;101984.34;;;14.65;61.85
31121;BME280;17770;45.966;13.632;2023-02-14T14:45:37;101973.88;;;14.68;61.41
31121;BME280;17770;45.966;13.632;2023-02-14T14:48:12;101984.25;;;14.69;62.47
31121;BME280;17770;45.966;13.632;2023-02-14T14:50:42;101971.22;;;14.72;63.01
31121;BME280;17770;45.966;13.632;2023-02-14T14:53:17;101975.50;;;14.73;63.47
31121;BME280;17770;45.966;13.632;2023-02-14T14:55:44;101967.69;;;14.75;62.27
31121;BME280;17770;45.966;13.632;2023-02-14T15:00:54;101970.22;;;14.78;63.19
31121;BME280;17770;45.966;13.632;2023-02-14T15:03:20;101969.34;;;14.79;63.24
31121;BME280;17770;45.966;13.632;2023-02-14T15:05:48;101970.16;;;14.81;62.98
31121;BME280;17770;45.966;13.632;2023-02-14T15:10:51;101972.66;;;14.85;62.72
31121;BME280;17770;45.966;13.632;2023-02-14T15:13:18;101971.75;;;14.86;63.46
31121;BME280;17770;45.966;13.632;2023-02-14T15:16:05;101978.66;;;14.89;63.83
31121;BME280;17770;45.966;13.632;2023-02-14T15:18:31;101975.16;;;14.90;63.29
31121;BME280;17770;45.966;13.632;2023-02-14T15:20:57;101965.59;;;14.92;62.97
31121;BME280;17770;45.966;13.632;2023-02-14T15:23:23;101977.69;;;14.93;63.61